createdAt,value
2023-02-22T00:00:43.125Z,9.60
2023-02-22T00:02:59.751Z,9.54
2023-02-22T00:05:02.823Z,9.50
2023-02-22T00:07:07.433Z,9.45
2023-02-22T00:09:10.456Z,9.39
2023-02-22T00:11:15.488Z,9.34
2023-02-22T00:13:23.895Z,9.33
2023-02-22T00:15:29.731Z,9.28
2023-02-22T00:17:32.424Z,9.22
2023-02-22T00:19:36.110Z,9.16
2023-02-22T00:21:39.241Z,9.13
2023-02-22T00:23:48.519Z,9.08
2023-02-22T00:25:52.157Z,9.05
2023-02-22T00:27:56.527Z,9.03
2023-02-22T00:30:00.826Z,9.01
2023-02-22T00:32:04.041Z,9.01
2023-02-22T00:34:06.816Z,8.95
2023-02-22T00:36:12.983Z,8.86
2023-02-22T00:38:18.480Z,8.78
2023-02-22T00:40:28.468Z,8.72
2023-02-22T00:42:31.914Z,8.67
2023-02-22T00:44:34.481Z,8.65
2023-02-22T00:46:37.781Z,8.63
2023-02-22T00:48:41.208Z,8.61
2023-02-22T00:50:43.793Z,8.60
2023-02-22T00:52:47.398Z,8.58
2023-02-22T00:54:50.474Z,8.59
2023-02-22T00:56:53.736Z,8.60
2023-02-22T00:58:56.359Z,8.60
2023-02-22T01:00:59.105Z,8.60
2023-02-22T01:03:02.022Z,8.58
2023-02-22T01:05:08.409Z,8.58
2023-02-22T01:07:11.322Z,8.57
2023-02-22T01:09:14.003Z,8.55
2023-02-22T01:11:18.564Z,8.51
2023-02-22T01:13:21.610Z,8.45
2023-02-22T01:15:30.923Z,8.38
2023-02-22T01:17:34.136Z,8.32
2023-02-22T01:19:36.740Z,8.27
2023-02-22T01:21:42.691Z,8.19
2023-02-22T01:23:46.375Z,8.11
2023-02-22T01:25:49.163Z,8.05
2023-02-22T01:27:53.049Z,8.00
2023-02-22T01:29:55.940Z,7.97
2023-02-22T01:31:58.856Z,7.88
2023-02-22T01:34:02.029Z,7.84
2023-02-22T01:36:11.588Z,7.82
2023-02-22T01:38:14.473Z,7.80
2023-02-22T01:40:29.295Z,7.80
2023-02-22T01:42:31.971Z,7.77
2023-02-22T01:44:37.777Z,7.75
2023-02-22T01:46:41.318Z,7.74
2023-02-22T01:48:54.897Z,7.71
2023-02-22T01:51:14.949Z,7.67
2023-02-22T01:53:20.793Z,7.63
2023-02-22T01:55:23.604Z,7.57
2023-02-22T01:57:31.203Z,7.54
2023-02-22T01:59:38.127Z,7.55
2023-02-22T02:01:45.288Z,7.56
2023-02-22T02:03:49.585Z,7.54
2023-02-22T02:05:59.235Z,7.54
2023-02-22T02:08:13.364Z,7.58
2023-02-22T02:10:18.090Z,7.63
2023-02-22T02:12:23.320Z,7.68
2023-02-22T02:14:27.048Z,7.72
2023-02-22T02:16:43.866Z,7.75
2023-02-22T02:18:46.806Z,7.77
2023-02-22T02:21:26.187Z,7.77
2023-02-22T02:24:03.750Z,7.75
2023-02-22T02:26:32.519Z,7.70
2023-02-22T02:29:00.199Z,7.68
2023-02-22T02:31:21.563Z,7.68
2023-02-22T02:33:48.486Z,7.68
2023-02-22T02:36:10.420Z,7.66
2023-02-22T02:38:32.725Z,7.62
2023-02-22T02:40:47.674Z,7.57
2023-02-22T02:42:55.415Z,7.52
2023-02-22T02:45:23.530Z,7.40
2023-02-22T02:47:39.610Z,7.31
2023-02-22T02:49:59.340Z,7.30
2023-02-22T02:52:04.889Z,7.32
2023-02-22T02:54:10.311Z,7.35
2023-02-22T02:56:12.976Z,7.38
2023-02-22T02:58:21.498Z,7.41
2023-02-22T03:00:30.016Z,7.45
2023-02-22T03:02:35.399Z,7.46
2023-02-22T03:04:54.213Z,7.43
2023-02-22T03:07:11.832Z,7.36
2023-02-22T03:10:00.342Z,7.33
2023-02-22T03:12:22.463Z,7.30
2023-02-22T03:14:38.394Z,7.26
2023-02-22T03:17:16.273Z,7.19
2023-02-22T03:19:32.654Z,7.11
2023-02-22T03:21:55.425Z,7.03
2023-02-22T03:24:09.978Z,6.96
2023-02-22T03:26:24.079Z,6.87
2023-02-22T03:28:30.157Z,6.78
2023-02-22T03:31:20.209Z,6.71
2023-02-22T03:33:34.084Z,6.69
2023-02-22T03:35:45.803Z,6.73
2023-02-22T03:37:54.370Z,6.78
2023-02-22T03:40:00.847Z,6.84
2023-02-22T03:42:09.335Z,6.84
2023-02-22T03:44:16.133Z,6.82
2023-02-22T03:46:21.809Z,6.78
2023-02-22T03:48:37.893Z,6.74
2023-02-22T03:50:41.171Z,6.73
2023-02-22T03:52:45.441Z,6.68
2023-02-22T03:54:53.758Z,6.65
2023-02-22T03:57:12.155Z,6.64
2023-02-22T03:59:16.508Z,6.64
2023-02-22T04:01:20.026Z,6.67
2023-02-22T04:03:23.762Z,6.71
2023-02-22T04:05:30.122Z,6.75
2023-02-22T04:07:33.903Z,6.77
2023-02-22T04:09:38.209Z,6.81
2023-02-22T04:11:41.127Z,6.83
2023-02-22T04:13:43.881Z,6.80
2023-02-22T04:15:48.353Z,6.78
2023-02-22T04:17:52.892Z,6.78
2023-02-22T04:19:55.773Z,6.79
2023-02-22T04:22:00.423Z,6.77
2023-02-22T04:24:03.831Z,6.74
2023-02-22T04:26:07.401Z,6.72
2023-02-22T04:28:11.122Z,6.70
2023-02-22T04:30:21.636Z,6.67
2023-02-22T04:32:24.534Z,6.68
2023-02-22T04:34:27.296Z,6.67
2023-02-22T04:36:33.657Z,6.64
2023-02-22T04:38:37.015Z,6.61
2023-02-22T04:40:39.654Z,6.60
2023-02-22T04:42:44.035Z,6.58
2023-02-22T04:44:47.552Z,6.58
2023-02-22T04:46:52.965Z,6.59
2023-02-22T04:48:57.752Z,6.59
2023-02-22T04:51:03.568Z,6.61
2023-02-22T04:53:07.038Z,6.63
2023-02-22T04:55:10.810Z,6.64
2023-02-22T04:57:14.650Z,6.65
2023-02-22T04:59:28.177Z,6.66
2023-02-22T05:01:37.709Z,6.67
2023-02-22T05:03:40.790Z,6.67
2023-02-22T05:05:43.935Z,6.66
2023-02-22T05:07:47.828Z,6.70
2023-02-22T05:09:51.082Z,6.75
2023-02-22T05:11:54.155Z,6.74
2023-02-22T05:13:57.767Z,6.73
2023-02-22T05:16:01.017Z,6.74
2023-02-22T05:18:05.025Z,6.77
2023-02-22T05:20:23.975Z,6.81
2023-02-22T05:22:26.654Z,6.80
2023-02-22T05:24:29.294Z,6.79
2023-02-22T05:26:32.510Z,6.81
2023-02-22T05:28:35.306Z,6.84
2023-02-22T05:30:41.923Z,6.86
2023-02-22T05:32:47.006Z,6.87
2023-02-22T05:34:49.777Z,6.90
2023-02-22T05:36:52.733Z,6.92
2023-02-22T05:38:56.041Z,6.97
2023-02-22T05:40:58.870Z,7.00
2023-02-22T05:43:03.585Z,7.02
2023-02-22T05:45:08.699Z,7.04
2023-02-22T05:47:11.307Z,7.06
2023-02-22T05:49:13.970Z,7.08
2023-02-22T05:51:16.985Z,7.09
2023-02-22T05:53:20.043Z,7.07
2023-02-22T05:55:24.820Z,7.02
2023-02-22T05:57:29.645Z,6.97
2023-02-22T05:59:32.702Z,6.92
2023-02-22T06:01:35.444Z,6.86
2023-02-22T06:03:38.039Z,6.82
2023-02-22T06:05:41.000Z,6.80
2023-02-22T06:07:43.621Z,6.80
2023-02-22T06:09:46.978Z,6.80
2023-02-22T06:11:50.039Z,6.77
2023-02-22T06:13:53.648Z,6.77
2023-02-22T06:15:56.219Z,6.77
2023-02-22T06:18:00.265Z,6.77
2023-02-22T06:20:04.364Z,6.75
2023-02-22T06:22:08.429Z,6.71
2023-02-22T06:24:11.997Z,6.69
2023-02-22T06:26:17.864Z,6.71
2023-02-22T06:28:20.996Z,6.71
2023-02-22T06:30:25.303Z,6.70
2023-02-22T06:32:28.373Z,6.68
2023-02-22T06:34:31.119Z,6.66
2023-02-22T06:36:37.483Z,6.66
2023-02-22T06:38:41.035Z,6.66
2023-02-22T06:40:45.278Z,6.69
2023-02-22T06:42:49.174Z,6.72
2023-02-22T06:44:53.029Z,6.75
2023-02-22T06:46:56.273Z,6.77
2023-02-22T06:49:01.760Z,6.79
2023-02-22T06:51:04.967Z,6.80
2023-02-22T06:53:09.307Z,6.83
2023-02-22T06:55:12.847Z,6.86
2023-02-22T06:57:16.143Z,6.86
2023-02-22T06:59:19.013Z,6.80
2023-02-22T07:01:22.040Z,6.76
2023-02-22T07:03:25.151Z,6.76
2023-02-22T07:05:29.815Z,6.77
2023-02-22T07:07:33.666Z,6.75
2023-02-22T07:09:36.289Z,6.72
2023-02-22T07:11:40.015Z,6.67
2023-02-22T07:13:42.779Z,6.60
2023-02-22T07:15:46.405Z,6.60
2023-02-22T07:17:50.253Z,6.60
2023-02-22T07:19:53.378Z,6.63
2023-02-22T07:21:59.249Z,6.64
2023-02-22T07:24:04.521Z,6.61
2023-02-22T07:26:08.469Z,6.58
2023-02-22T07:28:11.785Z,6.55
2023-02-22T07:30:40.130Z,6.54
2023-02-22T07:32:43.675Z,6.57
2023-02-22T07:34:47.524Z,6.58
2023-02-22T07:36:51.021Z,6.58
2023-02-22T07:38:54.692Z,6.60
2023-02-22T07:40:57.903Z,6.63
2023-02-22T07:43:17.384Z,6.65
2023-02-22T07:45:21.392Z,6.69
2023-02-22T07:47:24.059Z,6.72
2023-02-22T07:49:29.229Z,6.76
2023-02-22T07:51:32.150Z,6.76
2023-02-22T07:53:34.900Z,6.76
2023-02-22T07:55:37.916Z,6.77
2023-02-22T07:57:40.810Z,6.79
2023-02-22T07:59:45.677Z,6.80
2023-02-22T08:01:50.973Z,6.81
2023-02-22T08:03:54.057Z,6.81
2023-02-22T08:06:01.458Z,6.83
2023-02-22T08:08:04.545Z,6.86
2023-02-22T08:10:08.598Z,6.89
2023-02-22T08:12:11.108Z,6.90
2023-02-22T08:14:16.259Z,6.88
2023-02-22T08:16:19.121Z,6.90
2023-02-22T08:18:23.554Z,6.92
2023-02-22T08:20:27.669Z,6.93
2023-02-22T08:22:31.883Z,6.88
2023-02-22T08:24:35.812Z,6.86
2023-02-22T08:26:45.414Z,6.80
2023-02-22T08:28:48.907Z,6.78
2023-02-22T08:30:52.505Z,6.81
2023-02-22T08:32:55.870Z,6.88
2023-02-22T08:34:58.551Z,6.94
2023-02-22T08:37:02.681Z,6.99
2023-02-22T08:39:05.362Z,7.02
2023-02-22T08:41:08.017Z,7.02
2023-02-22T08:43:13.501Z,7.04
2023-02-22T08:45:17.044Z,7.08
2023-02-22T08:47:19.644Z,7.11
2023-02-22T08:49:22.390Z,7.13
2023-02-22T08:51:27.713Z,7.15
2023-02-22T08:53:32.756Z,7.22
2023-02-22T08:55:39.182Z,7.29
2023-02-22T08:57:41.786Z,7.36
2023-02-22T08:59:44.405Z,7.43
2023-02-22T09:01:47.387Z,7.48
2023-02-22T09:03:51.263Z,7.54
2023-02-22T09:05:54.982Z,7.57
2023-02-22T09:07:57.640Z,7.60
2023-02-22T09:10:00.245Z,7.61
2023-02-22T09:12:03.910Z,7.61
2023-02-22T09:14:06.565Z,7.65
2023-02-22T09:16:09.811Z,7.72
2023-02-22T09:18:14.956Z,7.81
2023-02-22T09:20:20.810Z,7.88
2023-02-22T09:22:23.347Z,7.95
2023-02-22T09:24:26.743Z,8.02
2023-02-22T09:26:30.265Z,8.08
2023-02-22T09:28:34.769Z,8.14
2023-02-22T09:30:39.791Z,8.17
2023-02-22T09:32:43.482Z,8.22
2023-02-22T09:34:46.852Z,8.26
2023-02-22T09:36:51.709Z,8.28
2023-02-22T09:38:55.277Z,8.33
2023-02-22T09:41:20.569Z,8.41
2023-02-22T09:43:48.175Z,8.49
2023-02-22T09:46:26.107Z,8.54
2023-02-22T09:48:34.780Z,8.59
2023-02-22T09:50:42.398Z,8.63
2023-02-22T09:53:00.443Z,8.65
2023-02-22T09:55:20.808Z,8.68
2023-02-22T09:57:35.136Z,8.71
2023-02-22T09:59:45.498Z,8.76
2023-02-22T10:01:54.402Z,8.84
2023-02-22T10:04:05.838Z,8.94
2023-02-22T10:06:16.038Z,9.00
2023-02-22T10:08:20.111Z,9.07
2023-02-22T10:10:26.640Z,9.17
2023-02-22T10:12:37.792Z,9.24
2023-02-22T10:15:08.919Z,9.30
2023-02-22T10:17:39.366Z,9.37
2023-02-22T10:20:13.434Z,9.45
2023-02-22T10:22:41.077Z,9.51
2023-02-22T10:24:52.357Z,9.58
2023-02-22T10:26:58.545Z,9.58
2023-02-22T10:29:15.452Z,9.59
2023-02-22T10:31:28.616Z,9.65
2023-02-22T10:33:37.170Z,9.74
2023-02-22T10:35:41.296Z,9.83
2023-02-22T10:37:44.872Z,9.88
2023-02-22T10:39:49.975Z,9.92
2023-02-22T10:41:57.569Z,9.94
2023-02-22T10:44:03.411Z,9.97
2023-02-22T10:46:12.548Z,10.03
2023-02-22T10:48:21.177Z,10.11
2023-02-22T10:50:24.061Z,10.18
2023-02-22T10:52:34.024Z,10.23
2023-02-22T10:54:42.692Z,10.29
2023-02-22T10:56:50.898Z,10.34
2023-02-22T10:59:02.522Z,10.36
2023-02-22T11:01:20.210Z,10.42
2023-02-22T11:03:24.271Z,10.47
2023-02-22T11:05:37.101Z,10.55
2023-02-22T11:07:42.657Z,10.65
2023-02-22T11:09:48.309Z,10.73
2023-02-22T11:12:08.199Z,10.84
2023-02-22T11:14:12.514Z,10.93
2023-02-22T11:16:24.582Z,11.02
2023-02-22T11:18:35.479Z,11.12
2023-02-22T11:20:39.996Z,11.19
2023-02-22T11:22:43.140Z,11.27
2023-02-22T11:24:50.683Z,11.31
2023-02-22T11:26:57.574Z,11.38
2023-02-22T11:29:09.842Z,11.44
2023-02-22T11:31:18.868Z,11.52
2023-02-22T11:33:25.700Z,11.57
2023-02-22T11:35:28.595Z,11.61
2023-02-22T11:37:36.968Z,11.64
2023-02-22T11:39:43.525Z,11.71
2023-02-22T11:41:49.383Z,11.77
2023-02-22T11:43:52.841Z,11.83
2023-02-22T11:46:02.515Z,11.90
2023-02-22T11:48:07.879Z,11.97
2023-02-22T11:50:18.610Z,11.98
2023-02-22T11:52:31.793Z,12.05
2023-02-22T11:55:32.690Z,12.12
2023-02-22T11:58:15.645Z,12.13
2023-02-22T12:00:51.587Z,12.13
2023-02-22T12:03:28.762Z,12.16
2023-02-22T12:06:11.838Z,12.16
2023-02-22T12:08:35.472Z,12.18
2023-02-22T12:11:12.419Z,12.21
2023-02-22T12:13:36.989Z,12.18
2023-02-22T12:15:56.258Z,12.16
2023-02-22T12:18:22.178Z,12.19
2023-02-22T12:20:40.049Z,12.27
2023-02-22T12:22:53.998Z,12.35
2023-02-22T12:25:09.447Z,12.43
2023-02-22T12:27:46.262Z,12.52
2023-02-22T12:30:12.966Z,12.60
2023-02-22T12:32:23.255Z,12.61
2023-02-22T12:35:09.654Z,12.65
2023-02-22T12:37:37.000Z,12.66
2023-02-22T12:39:52.608Z,12.64
2023-02-22T12:41:57.136Z,12.66
2023-02-22T12:44:18.159Z,12.68
2023-02-22T12:46:35.952Z,12.69
2023-02-22T12:48:46.185Z,12.68
2023-02-22T12:50:56.129Z,12.67
2023-02-22T12:53:04.968Z,12.67
2023-02-22T12:55:23.418Z,12.71
2023-02-22T12:57:42.831Z,12.75
2023-02-22T13:00:04.385Z,12.80
2023-02-22T13:02:45.550Z,12.88
2023-02-22T13:04:49.250Z,12.98
2023-02-22T13:07:02.777Z,13.08
2023-02-22T13:09:41.070Z,13.15
2023-02-22T13:11:57.383Z,13.24
2023-02-22T13:14:18.354Z,13.29
2023-02-22T13:16:33.399Z,13.35
2023-02-22T13:19:11.715Z,13.42
2023-02-22T13:21:25.234Z,13.43
2023-02-22T13:23:39.657Z,13.43
2023-02-22T13:25:55.221Z,13.47
2023-02-22T13:28:12.895Z,13.50
2023-02-22T13:30:21.722Z,13.54
2023-02-22T13:32:41.655Z,13.57
2023-02-22T13:34:51.282Z,13.65
2023-02-22T13:37:06.230Z,13.71
2023-02-22T13:39:19.752Z,13.75
2023-02-22T13:41:50.967Z,13.74
2023-02-22T13:44:27.397Z,13.75
2023-02-22T13:46:51.627Z,13.79
2023-02-22T13:49:02.546Z,13.82
2023-02-22T13:51:33.315Z,13.84
2023-02-22T13:53:48.262Z,13.88
2023-02-22T13:55:59.082Z,13.88
2023-02-22T13:58:10.983Z,13.88
2023-02-22T14:00:16.413Z,13.88
2023-02-22T14:02:53.756Z,13.91
2023-02-22T14:04:57.209Z,13.91
2023-02-22T14:07:25.135Z,13.92
2023-02-22T14:09:54.097Z,13.95
2023-02-22T14:11:57.395Z,13.97
2023-02-22T14:14:03.262Z,14.00
2023-02-22T14:16:07.955Z,14.04
2023-02-22T14:18:17.266Z,14.07
2023-02-22T14:20:30.200Z,14.14
2023-02-22T14:22:32.976Z,14.20
2023-02-22T14:24:47.069Z,14.27
2023-02-22T14:27:03.587Z,14.32
2023-02-22T14:29:09.010Z,14.39
2023-02-22T14:31:25.989Z,14.44
2023-02-22T14:34:02.591Z,14.49
2023-02-22T14:36:05.518Z,14.52
2023-02-22T14:38:21.010Z,14.56
2023-02-22T14:40:27.970Z,14.59
2023-02-22T14:42:35.877Z,14.60
2023-02-22T14:45:01.360Z,14.59
2023-02-22T14:47:09.992Z,14.58
2023-02-22T14:49:19.059Z,14.57
2023-02-22T14:51:29.199Z,14.58
2023-02-22T14:53:44.251Z,14.58
2023-02-22T14:55:53.319Z,14.59
2023-02-22T14:58:05.410Z,14.55
2023-02-22T15:00:31.351Z,14.50
2023-02-22T15:02:41.472Z,14.49
2023-02-22T15:04:51.177Z,14.49
2023-02-22T15:06:56.128Z,14.50
2023-02-22T15:09:29.067Z,14.51
2023-02-22T15:11:33.121Z,14.50
2023-02-22T15:13:35.729Z,14.47
2023-02-22T15:15:44.715Z,14.44
2023-02-22T15:17:57.626Z,14.43
2023-02-22T15:20:00.806Z,14.44
2023-02-22T15:22:04.205Z,14.46
2023-02-22T15:24:08.394Z,14.49
2023-02-22T15:26:42.467Z,14.52
2023-02-22T15:28:55.018Z,14.51
2023-02-22T15:31:29.943Z,14.50
2023-02-22T15:33:38.132Z,14.53
2023-02-22T15:35:40.875Z,14.54
2023-02-22T15:37:45.458Z,14.54
2023-02-22T15:39:48.620Z,14.56
2023-02-22T15:42:08.088Z,14.57
2023-02-22T15:44:23.237Z,14.57
2023-02-22T15:46:26.646Z,14.57
2023-02-22T15:48:31.713Z,14.56
2023-02-22T15:50:35.469Z,14.55
2023-02-22T15:52:38.455Z,14.53
2023-02-22T15:54:44.711Z,14.51
2023-02-22T15:56:51.679Z,14.49
2023-02-22T15:59:07.434Z,14.47
2023-02-22T16:01:16.456Z,14.43
2023-02-22T16:03:28.588Z,14.41
2023-02-22T16:06:06.020Z,14.38
2023-02-22T16:08:19.179Z,14.33
2023-02-22T16:10:33.707Z,14.30
2023-02-22T16:12:36.966Z,14.26
2023-02-22T16:14:45.465Z,14.22
2023-02-22T16:16:48.251Z,14.19
2023-02-22T16:18:52.127Z,14.16
2023-02-22T16:21:04.745Z,14.12
2023-02-22T16:23:28.233Z,14.09
2023-02-22T16:25:35.716Z,14.07
2023-02-22T16:27:47.660Z,14.06
2023-02-22T16:30:23.396Z,14.04
2023-02-22T16:32:26.565Z,14.01
2023-02-22T16:34:31.663Z,13.99
2023-02-22T16:36:46.432Z,13.97
2023-02-22T16:38:51.751Z,13.95
2023-02-22T16:40:56.533Z,13.92
2023-02-22T16:43:02.571Z,13.88
2023-02-22T16:45:06.045Z,13.84
2023-02-22T16:47:11.094Z,13.80
2023-02-22T16:49:14.869Z,13.76
2023-02-22T16:51:26.686Z,13.72
2023-02-22T16:53:33.016Z,13.66
2023-02-22T16:55:36.726Z,13.60
2023-02-22T16:57:40.605Z,13.55
2023-02-22T16:59:43.495Z,13.51
2023-02-22T17:01:46.144Z,13.47
2023-02-22T17:03:50.782Z,13.42
2023-02-22T17:05:53.827Z,13.38
2023-02-22T17:07:59.090Z,13.33
2023-02-22T17:10:02.005Z,13.28
2023-02-22T17:12:04.863Z,13.26
2023-02-22T17:14:08.083Z,13.25
2023-02-22T17:16:14.750Z,13.23
2023-02-22T17:18:23.144Z,13.21
2023-02-22T17:20:31.996Z,13.17
2023-02-22T17:22:34.582Z,13.13
2023-02-22T17:24:39.242Z,13.12
2023-02-22T17:26:42.060Z,13.08
2023-02-22T17:28:45.102Z,13.04
2023-02-22T17:30:49.103Z,12.99
2023-02-22T17:32:52.488Z,12.95
2023-02-22T17:34:55.070Z,12.89
2023-02-22T17:36:57.819Z,12.85
2023-02-22T17:39:00.540Z,12.80
2023-02-22T17:41:03.829Z,12.76
2023-02-22T17:43:09.262Z,12.71
2023-02-22T17:47:14.680Z,12.63
2023-02-22T17:49:18.124Z,12.60
2023-02-22T17:51:23.162Z,12.57
2023-02-22T17:53:25.923Z,12.54
2023-02-22T17:55:28.722Z,12.50
2023-02-22T17:57:31.630Z,12.47
2023-02-22T17:59:34.373Z,12.45
2023-02-22T18:01:37.290Z,12.44
2023-02-22T18:03:40.236Z,12.43
2023-02-22T18:05:48.719Z,12.42
2023-02-22T18:07:51.275Z,12.40
2023-02-22T18:09:54.724Z,12.38
2023-02-22T18:11:57.791Z,12.35
2023-02-22T18:14:00.448Z,12.30
2023-02-22T18:16:05.882Z,12.28
2023-02-22T18:18:10.926Z,12.23
2023-02-22T18:20:38.211Z,12.19
2023-02-22T18:22:43.298Z,12.16
2023-02-22T18:24:45.933Z,12.14
2023-02-22T18:26:49.707Z,12.13
2023-02-22T18:28:53.677Z,12.10
2023-02-22T18:30:58.400Z,12.08
2023-02-22T18:33:01.301Z,12.04
2023-02-22T18:35:06.394Z,12.01
2023-02-22T18:37:09.112Z,11.99
2023-02-22T18:39:12.096Z,11.96
2023-02-22T18:41:17.553Z,11.95
2023-02-22T18:43:20.710Z,11.96
2023-02-22T18:45:23.518Z,11.96
2023-02-22T18:47:28.516Z,11.96
2023-02-22T18:49:31.410Z,11.96
2023-02-22T18:51:34.039Z,11.97
2023-02-22T18:53:38.647Z,11.95
2023-02-22T18:55:41.292Z,11.95
2023-02-22T18:57:45.362Z,11.93
2023-02-22T18:59:48.612Z,11.92
2023-02-22T19:01:51.545Z,11.90
2023-02-22T19:03:55.696Z,11.87
2023-02-22T19:06:09.941Z,11.86
2023-02-22T19:08:13.208Z,11.84
2023-02-22T19:10:16.789Z,11.82
2023-02-22T19:12:19.782Z,11.81
2023-02-22T19:14:22.798Z,11.79
2023-02-22T19:16:27.273Z,11.75
2023-02-22T19:18:31.993Z,11.72
2023-02-22T19:20:35.404Z,11.69
2023-02-22T19:24:46.759Z,11.69
2023-02-22T19:26:53.848Z,11.69
2023-02-22T19:28:58.792Z,11.67
2023-02-22T19:31:29.443Z,11.66
2023-02-22T19:35:34.508Z,11.59
2023-02-22T19:37:38.061Z,11.58
2023-02-22T19:39:42.710Z,11.59
2023-02-22T19:41:46.992Z,11.58
2023-02-22T19:43:52.961Z,11.56
2023-02-22T19:45:55.775Z,11.56
2023-02-22T19:48:00.244Z,11.53
2023-02-22T19:50:03.029Z,11.51
2023-02-22T19:52:08.626Z,11.51
2023-02-22T19:54:21.387Z,11.50
2023-02-22T19:56:27.115Z,11.49
2023-02-22T19:58:32.561Z,11.48
2023-02-22T20:00:36.253Z,11.50
2023-02-22T20:02:40.563Z,11.51
2023-02-22T20:04:44.271Z,11.51
2023-02-22T20:06:50.718Z,11.51
2023-02-22T20:08:54.641Z,11.51
2023-02-22T20:10:58.497Z,11.52
2023-02-22T20:13:01.848Z,11.52
2023-02-22T20:15:05.137Z,11.50
2023-02-22T20:17:09.034Z,11.49
2023-02-22T20:19:14.505Z,11.47
2023-02-22T20:21:51.969Z,11.51
2023-02-22T20:23:56.870Z,11.48
2023-02-22T20:26:00.332Z,11.46
2023-02-22T20:28:01.718Z,11.43
2023-02-22T20:30:05.332Z,11.40
2023-02-22T20:32:11.239Z,11.38
2023-02-22T20:34:13.132Z,11.35
2023-02-22T20:36:16.981Z,11.32
2023-02-22T20:38:18.765Z,11.32
2023-02-22T20:40:20.335Z,11.31
2023-02-22T20:42:22.577Z,11.29
2023-02-22T20:44:24.137Z,11.27
2023-02-22T20:46:27.618Z,11.23
2023-02-22T20:48:29.535Z,11.21
2023-02-22T20:50:32.405Z,11.18
2023-02-22T20:52:33.741Z,11.16
2023-02-22T20:54:39.447Z,11.13
2023-02-22T20:56:42.950Z,11.11
2023-02-22T20:58:45.199Z,11.11
2023-02-22T21:00:47.310Z,11.11
2023-02-22T21:02:48.975Z,11.11
2023-02-22T21:04:53.210Z,11.12
2023-02-22T21:06:56.178Z,11.12
2023-02-22T21:08:59.315Z,11.12
2023-02-22T21:11:01.075Z,11.13
2023-02-22T21:13:05.486Z,11.16
2023-02-22T21:15:07.720Z,11.18
2023-02-22T21:17:09.549Z,11.20
2023-02-22T21:19:11.314Z,11.20
2023-02-22T21:21:12.823Z,11.18
2023-02-22T21:23:15.386Z,11.16
2023-02-22T21:25:17.820Z,11.13
2023-02-22T21:27:19.426Z,11.11
2023-02-22T21:29:21.114Z,11.10
2023-02-22T21:31:24.629Z,11.09
2023-02-22T21:33:26.150Z,11.05
2023-02-22T21:35:27.653Z,11.01
2023-02-22T21:37:28.932Z,10.99
2023-02-22T21:39:30.700Z,10.98
2023-02-22T21:41:33.326Z,10.96
2023-02-22T21:43:35.230Z,10.94
2023-02-22T21:45:37.722Z,10.94
2023-02-22T21:47:39.244Z,10.94
2023-02-22T21:49:40.680Z,10.93
2023-02-22T21:51:44.062Z,10.92
2023-02-22T21:53:47.704Z,10.91
2023-02-22T21:55:50.703Z,10.91
2023-02-22T21:57:53.855Z,10.89
2023-02-22T21:59:56.323Z,10.86
2023-02-22T22:01:57.666Z,10.82
2023-02-22T22:04:00.949Z,10.80
2023-02-22T22:06:09.102Z,10.81
2023-02-22T22:08:19.206Z,10.82
2023-02-22T22:10:26.234Z,10.81
2023-02-22T22:12:38.856Z,10.81
2023-02-22T22:14:40.622Z,10.80
2023-02-22T22:16:42.567Z,10.79
2023-02-22T22:18:46.190Z,10.77
2023-02-22T22:20:51.068Z,10.79
2023-02-22T22:22:53.954Z,10.83
2023-02-22T22:24:55.746Z,10.86
2023-02-22T22:27:02.855Z,10.89
2023-02-22T22:29:05.172Z,10.89
2023-02-22T22:31:08.208Z,10.91
2023-02-22T22:33:10.701Z,10.92
2023-02-22T22:35:13.981Z,10.92
2023-02-22T22:37:15.979Z,10.92
2023-02-22T22:39:20.244Z,10.92
2023-02-22T22:41:21.712Z,10.91
2023-02-22T22:43:24.536Z,10.90
2023-02-22T22:45:25.797Z,10.90
2023-02-22T22:47:28.773Z,10.90
2023-02-22T22:49:32.817Z,10.89
2023-02-22T22:51:37.591Z,10.88
2023-02-22T22:53:42.635Z,10.86
2023-02-22T22:55:43.904Z,10.85
2023-02-22T22:57:47.362Z,10.84
2023-02-22T22:59:49.327Z,10.83
2023-02-22T23:01:55.824Z,10.83
2023-02-22T23:04:02.036Z,10.82
2023-02-22T23:06:04.592Z,10.79
2023-02-22T23:08:09.772Z,10.78
2023-02-22T23:10:12.336Z,10.78
2023-02-22T23:12:17.065Z,10.80
2023-02-22T23:14:21.200Z,10.79
2023-02-22T23:16:24.444Z,10.79
2023-02-22T23:18:25.706Z,10.78
2023-02-22T23:20:27.145Z,10.76
2023-02-22T23:22:28.950Z,10.75
2023-02-22T23:24:37.425Z,10.74
2023-02-22T23:26:39.308Z,10.74
2023-02-22T23:28:41.314Z,10.76
2023-02-22T23:30:43.310Z,10.78
2023-02-22T23:32:46.021Z,10.80
2023-02-22T23:34:50.623Z,10.80
2023-02-22T23:36:54.827Z,10.79
2023-02-22T23:38:56.045Z,10.80
2023-02-22T23:41:09.400Z,10.80
2023-02-22T23:43:11.351Z,10.80
2023-02-22T23:45:21.742Z,10.79
2023-02-22T23:47:25.048Z,10.79
2023-02-22T23:49:35.098Z,10.78
2023-02-22T23:51:42.199Z,10.77
2023-02-22T23:53:45.277Z,10.74
2023-02-22T23:55:46.632Z,10.71
2023-02-22T23:57:49.616Z,10.65
